Airfield :
LOGIN :

Register | Disclaimer

   EN    FR    IT 

 










Legend :    VFR   Marginal VFR   IFR   Intensive IFR   Very Intensive IFR
Visi :
Ceiling :
>= 8 km
>= 3000ft
5 to 8 km
1000 to 3000 ft
1500m to 5 km
500 to 1000 ft
800 to 1500m
200 to 500 ft
< 800m
< 200 ft
Symbols :   Thunderstorms  Fog  Heavy snow  Heavy precipitations  Wind > 20 kt
SIGMETs :     Misc.  Thunderstorms  Icing  Turbulence  Mountain Waves  Volcanic Ashes







- Airport Elevation : 31 ft
- IATA code : INV
- Download approach charts


EGPE - Inverness

CURRENT METAR :
  • 181520Z 24016KT 9999 VCSH FEW016 SCT032CB 15/12 Q0990

EXPIRED METARs :
  • 181450Z 24019G29KT 9999 8000S VCSH FEW016 SCT034CB 16/11 Q0990
  • 181420Z 22017KT 9999 FEW015 SCT032CB 17/12 Q0989
  • 181350Z 22018KT 9999 FEW015 SCT032CB 17/13 Q0988
  • 181320Z 23016KT 9999 FEW015 SCT025CB SCT046 17/14 Q0988
  • 181250Z 22015KT 9999 VCSH FEW015 SCT025CB SCT046 15/13 Q0988

TAF TAF EGPE
Valid from the 18 at 15:00 until the 19 at 00:00 UTC


181401Z 1815/1824 22014KT 9999 FEW035CB
TEMPO 1815/1824 24016G26KT
TEMPO 1815/1818 5000 SHRA
PROB40
TEMPO 1821/1824 5000 SHRA
ATIS : +44 1667 464 255
No reported NOTAMs for that airfield.



MET'MAP, your aeronautical weather chart ! - Copyright ORBIFLY December 2007 - Disclaimer

ORBIFLY MET'MAP TEAM :

Programming & Development : Alexandra Zaïnal
Concept & Development : Baudouin d'Aumeries
Co-Development & Prog : Marc-Olivier Méhu
Technical & hardware support : Manuel Goepfert

Contact : metmap@orbifly.com




SOURCES & CREDITS :

   NOAA